首页
METAR-TAF:

METAR-TAF

机场 :

都柏林机场

都柏林, 爱尔兰

纬度: 53-26N, 经度: 006-15W, 海拔: 68米

当前天气观测

该预报发布于30分钟前的10:30 UTC
风速6节,风向东转东北,在之间变化
温度 12°C
湿度 88%
气压 989 hPa
能見度: 6000
少量云层高于800英尺
散云层高于3500英尺
多云层高于9000英尺

METAR: EIDW 241030Z 06006KT 010V090 6000 FEW008 SCT035 BKN090 12/10 Q0989 BECMG 9999

时间: 12:00 (11:00 UTC)

预报

该预报发布于6小时和0分钟前的05:00 UTC
预报有效从24日的 06点(UTC)到 25日的 06点(UTC)
风速5节,风向东转东北
能见度10公里或以上
少量云层高于2000英尺
散云层高于4000英尺
几率 30% :
短暂存在
从 24日的 06点(UTC)到 24日的 09点(UTC)
能見度: 3000
轻雾
成为
从 24日的 07点(UTC)到 24日的 09点(UTC)
风速10节,风向
几率 30% :
短暂存在
从 24日的 09点(UTC)到 24日的 12点(UTC)
能見度: 4000
多云层高于1000英尺
小雨, 轻雾
短暂存在
从 24日的 12点(UTC)到 24日的 19点(UTC)
能見度: 4000
多云层高于800英尺
小雨
成为
从 24日的 14点(UTC)到 24日的 17点(UTC)
风速10节,风向南转南东
几率 40% :
短暂存在
从 24日的 15点(UTC)到 24日的 17点(UTC)
能見度: 3000
成为
从 25日的 02点(UTC)到 25日的 04点(UTC)
风速12节,风向

TAF: EIDW 240500Z 2406/2506 07005KT 9999 FEW020 SCT040 PROB30 TEMPO 2406/2409 3000 BR BECMG 2407/2409 10010KT PROB30 TEMPO 2409/2412 4000 -RA BR BKN010 TEMPO 2412/2419 4000 -RA BKN008 BECMG 2414/2417 16010KT PROB40 TEMPO 2415/2417 3000 RA BECMG 2502/2504 10012KT

超过4000个机场的气象观测和天气预报(METAR&TAF报告)。

可查询的气象台以黄色和红色小点在地图上表示。

将鼠标移到小点上方,可查看气象台名称。

然后点击查看天气观测和预报。

如需切换地图:点击带黑十字的绿色按钮放大地图;点击带横线的绿色按钮缩小地图;或者点击绿色箭头查看邻近地区的地图。


METAR-TAF: